Skip to main content

NOAA/GLERL Met Station at Muskegon, MI

Previous 5 days (top of hour only)
See also Previous 3 Hours (2 minute increments)
Jump down to Data
Switch to [English][Metric]
Zoom: Click and drag, Pan: shift-click and drag, Unzoom: double-click, Unzoom All






Note: Speed = mean wind during 2-minute period at top of hour,
Gust = max wind during 2-minute period at top of hour,
Peak = max wind during entire hour.
• See also 5-day windrose plot


NOAA/GLERL Met Station at Muskegon, MI

Previous 5 days (top of hour only)
See also Previous 3 Hours (2 minute increments)
Jump up to Graphs
Switch to [English][Metric]
                  Wind  Wind  Wind   Air   Dew   Rel     Sta   PAR
                   Spd   Gst   Dir  Temp    Pt   Hum    Pres uE/m2/
YYYY-MM-DD   EDT   kts   kts   deg     F     F     %   in Hg   sec
2017-08-23 07:00  17.5  19.2   332  66.6  57.6  72.5   29.31    19
2017-08-23 06:00  16.5  18.3   321  67.3  57.0  69.2   29.31     4
2017-08-23 05:00  22.0  23.7   320  67.6  56.3  66.7   29.31     3
2017-08-23 04:00  21.0  26.4   327  68.4  57.9  68.9   29.30     3
2017-08-23 03:00  22.2  24.7   336  69.1  55.0  60.3   29.30     3
2017-08-23 02:00  22.2  24.9   333  69.3  56.6  63.7   29.30     3
2017-08-23 01:00  18.7  21.6   353  69.6  53.2  55.5   29.29     3
2017-08-23 00:00  16.7  18.9   330  70.5  58.7  65.8   29.28     3
2017-08-22 23:00  14.8  16.3   312  70.7  60.1  68.7   29.28     3
2017-08-22 22:00  16.1  17.9   323  70.9  57.1  61.3   29.28     3
2017-08-22 21:00  17.7  20.8   329  71.1  58.6  64.3   29.27     3
2017-08-22 20:00  18.5  20.8   330  71.8  58.6  62.8   29.27   583
2017-08-22 19:00  18.5  22.0   339  72.5  57.9  59.6   29.27  1388
2017-08-22 18:00  13.6  15.4   336  72.3  59.8  64.2   29.25  1826
2017-08-22 17:00  15.9  18.1   347  72.7  58.4  60.3   29.25  1968
2017-08-22 16:00  17.9  20.8   347  71.1  59.7  67.0   29.23  2121
2017-08-22 15:00  18.9  21.8   344  71.1  60.1  67.8   29.23  2188
2017-08-22 14:00  24.7  29.4   353  70.7  61.3  71.8   29.20  2153
2017-08-22 13:00  18.7  21.4   313  70.9  66.5  85.8   29.18  1806
2017-08-22 12:00  20.6  23.1   314  70.2  66.1  86.6   29.19   765
2017-08-22 11:00  21.2  22.9   303  70.2  66.3  87.3   29.17   865
2017-08-22 10:00  20.4  23.5   299  70.7  66.3  85.8   29.16   518
2017-08-22 09:00  17.7  19.6   281  71.4  68.0  88.9   29.16   718
2017-08-22 08:00  16.1  17.5   279  72.0  69.9  93.0   29.15   200
2017-08-22 07:00  16.7  18.3   277  72.3  71.6  97.5   29.15     8
2017-08-22 06:00  22.6  25.5   258  72.7  71.6  96.3   29.14     4
2017-08-22 05:00  24.5  27.6   245  72.7  71.3  95.5   29.15     4
2017-08-22 04:00  20.4  23.3   249  73.2  72.7  98.3   29.17     4
2017-08-22 03:00  13.6  15.0   205  73.2  73.0  99.4   29.17     4
2017-08-22 02:00  11.7  12.4   209  73.4  72.4  96.5   29.20     4
2017-08-22 01:00  16.1  18.1   193  73.2  72.2  96.6   29.23     4
2017-08-22 00:00  14.8  16.3   200  73.6  71.9  94.5   29.25     4
2017-08-21 23:00  14.0  15.4   196  73.4  72.4  96.5   29.28     4
2017-08-21 22:00  13.4  14.6   195  74.1  71.2  90.3   29.30     3
2017-08-21 21:00  11.5  13.0   210  73.2  72.3  97.0   29.33     4
2017-08-21 20:00  10.1  10.9   212  73.2  72.8  98.4   29.34    50
2017-08-21 19:00   4.9   5.4   240  72.9  72.6  99.2   29.34   164
2017-08-21 18:00  11.9  13.4   174  73.9  72.1  94.0   29.31   403
2017-08-21 17:00  11.5  12.2   217  73.8  72.6  96.2   29.35   838
2017-08-21 16:00   5.4   8.2   138  78.1  70.8  78.0   29.35  1690
2017-08-21 15:00   4.1   5.2   199  74.3  72.6  94.4   29.40  1127
2017-08-21 14:00   8.7   9.3   196  74.7  72.3  92.2   29.42   599
2017-08-21 13:00   8.9   9.9   203  75.0  71.5  88.5   29.44  1638
2017-08-21 12:00   7.8   8.0   206  75.0  71.3  88.0   29.42  1769
2017-08-21 11:00   5.8   6.8   200  75.2  71.5  88.1   29.42  1533
2017-08-21 10:00   6.2   7.4   185  75.0  71.1  87.3   29.42  1199
2017-08-21 09:00   9.1  10.3   187  74.1  71.2  90.3   29.43   590
2017-08-21 08:00   9.5  10.3   199  73.6  70.6  90.1   29.43   293
2017-08-21 07:00   8.4   9.1   189  73.6  69.1  85.7   29.42    21
2017-08-21 06:00   9.7  10.3   186  72.9  70.5  92.3   29.41     4
2017-08-21 05:00   8.9  10.1   186  72.3  71.3  96.7   29.40     4
2017-08-21 04:00  10.9  11.5   199  72.9  70.9  93.6   29.41     4
2017-08-21 03:00   7.8   8.2   200  73.4  69.7  87.9   29.41     4
2017-08-21 02:00  10.1  10.7   195  74.1  67.2  78.7   29.42     3
2017-08-21 01:00   4.3   6.4   158  72.7  65.4  77.5   29.41     3
2017-08-21 00:00   7.2   8.0   185  75.2  65.0  70.2   29.41     3
2017-08-20 23:00   6.4   7.4   173  74.7  63.8  68.4   29.40     3
2017-08-20 22:00   8.2   8.4   190  74.3  66.1  75.3   29.40     3
2017-08-20 21:00   9.3   9.7   181  74.5  66.3  75.3   29.39     3
2017-08-20 20:00   8.4   9.1   182  75.0  66.3  73.8   29.39    85
2017-08-20 19:00   7.2   8.4   186  74.5  67.6  78.8   29.38   326
2017-08-20 18:00   6.6   8.4   197  75.7  67.7  75.8   29.39  1029
2017-08-20 17:00   5.6   7.8   187  75.6  68.1  77.2   29.39  1028
2017-08-20 16:00   4.1   6.0   184  76.3  68.6  76.8   29.40  1761
2017-08-20 15:00   7.6   8.9   194  75.7  68.7  78.5   29.41  1611
2017-08-20 14:00   8.9   9.5   200  74.8  68.7  80.9   29.42  2256
2017-08-20 13:00   9.1  10.3   193  74.3  67.9  80.2   29.42  1258
2017-08-20 12:00   8.9  10.1   200  73.2  68.7  85.6   29.44  1547
2017-08-20 11:00   6.6   7.4   207  72.3  68.1  86.4   29.43  1881
2017-08-20 10:00   6.6   7.8   196  71.6  67.7  87.4   29.42  1717
2017-08-20 09:00   8.4   9.1   177  70.5  66.8  87.8   29.41  1337
2017-08-20 08:00   3.5   3.9   121  66.9  66.0  96.7   29.41   716
2017-08-20 07:00   3.5   4.3   172  66.9  66.9  99.9   29.39    27
2017-08-20 06:00   3.3   3.9   203  68.2  68.0  99.2   29.38     3
2017-08-20 05:00   6.2   6.8   198  70.0  68.8  95.9   29.36     3
2017-08-20 04:00   6.2   7.0   198  70.2  68.1  93.0   29.37     3
2017-08-20 03:00   7.0   7.8   208  70.5  68.7  93.9   29.36     3
2017-08-20 02:00   7.4   7.8   207  70.5  69.0  95.0   29.36     3
2017-08-20 01:00   7.2   8.0   202  70.5  68.4  93.0   29.36     3
2017-08-20 00:00   7.2   7.6   203  70.5  68.4  92.8   29.35     3
2017-08-19 23:00   6.6   7.8   208  70.7  68.2  91.5   29.34     3
2017-08-19 22:00   9.5  10.9   217  71.1  67.8  89.2   29.33     2
2017-08-19 21:00   7.8   8.2   216  71.1  67.2  87.4   29.31     4
2017-08-19 20:00   7.8   8.2   211  72.1  66.0  80.8   29.31   449
2017-08-19 19:00   9.5   9.9   223  71.8  65.4  80.1   29.32  1242
2017-08-19 18:00   8.2   9.1   242  70.9  66.2  84.9   29.31  1699
2017-08-19 17:00   7.4   8.2   268  70.9  66.7  86.4   29.32  1795
2017-08-19 16:00   6.2   7.2   274  70.3  65.2  83.4   29.32  2063
2017-08-19 15:00   7.6   8.2   294  70.5  64.9  82.1   29.33  2174
2017-08-19 14:00   8.0   8.9   286  70.0  64.8  83.3   29.32  2319
2017-08-19 13:00   5.2   6.6   276  69.6  64.9  84.7   29.31  2152
2017-08-19 12:00   6.4   7.4   285  69.4  62.6  78.6   29.32  2047
2017-08-19 11:00   5.4   6.4   304  69.1  63.3  81.7   29.31  2055
2017-08-19 10:00   8.4   8.9   324  68.7  61.4  77.2   29.30  1740
2017-08-19 09:00   3.3   4.9   321  67.8  60.7  77.7   29.29  1453
2017-08-19 08:00   2.1   2.1   348  64.4  59.3  83.2   29.28   742
2017-08-19 07:00   4.1   4.3     3  61.9  59.8  92.8   29.27    22
2017-08-19 06:00   3.9   4.1    51  62.8  60.2  91.2   29.25     3
2017-08-19 05:00   2.3   2.7    52  63.5  60.3  89.2   29.24     3
2017-08-19 04:00   4.5   5.1   103  64.6  60.5  86.3   29.23     3
2017-08-19 03:00   9.9  10.9    40  68.2  62.3  81.3   29.23     3
2017-08-19 02:00   6.8   7.6   284  69.1  64.5  85.2   29.23     4
2017-08-19 01:00  13.8  14.0   256  68.4  65.0  88.9   29.23     3
2017-08-19 00:00   8.9   9.1   250  69.8  64.6  83.2   29.22     3
2017-08-18 23:00   7.2   7.6   255  69.8  63.7  80.6   29.22     3
2017-08-18 22:00   6.6   7.6   267  69.6  63.5  80.5   29.22     3
2017-08-18 21:00   6.2   6.8   268  69.4  64.2  83.2   29.21     4
2017-08-18 20:00   7.8   8.2   314  69.6  63.6  80.8   29.20   203